Alam Padu — 9MGK6 — position and weather

sailwx.info

Track history (hours):
 
Tides and Currents Weather Stations Pressure Air Temp Water Temp Dewpoint Dewpoint Depression Visibility Wind Speed Wind Dir Waves Ship Positions

Alam Padu

Last reported at 2015-Jun-12 12:30 UTC. Time now 2015-Jul-04 20:47 UTC.
Position N 30°38' E 124°59'.
Warning: this ship's position is 22 days out of date.

Length 229 m; draft 14 m.

Type: Cargo ship. MMSI: 533924000.

Date/timePositionNaut miles runAvg speedWind from/ knotsBaromVisibWave heightAir tempDewpointWater temp
2015-Jun-12 12:30N 30°38' E 124°59'2812.2
2015-Jun-12 10:13N 31°05' E 124°53'811.7
2015-Jun-12 09:31N 31°13' E 124°51'1111.6
2015-Jun-12 08:33N 31°25' E 124°48'7812.5
2015-Jun-12 02:22N 32°41' E 124°32'1113.5
2015-Jun-12 01:33N 32°52' E 124°30'  
2015-Jun-08 09:04N 39°03' E 119°08'1 0.1
2015-Jun-07 10:06N 39°02' E 119°07'0 0.1
2015-Jun-07 09:06N 39°02' E 119°07'0 0.0
2015-Jun-07 08:30N 39°02' E 119°07'0 0.0
2015-Jun-07 07:24N 39°02' E 119°07'0 0.0
2015-Jun-07 06:30N 39°02' E 119°07'153 3.4
2015-Jun-05 09:33N 38°12' E 122°13'3611.3
2015-Jun-05 06:22N 38°00' E 122°56'8410.8
2015-Jun-04 22:32N 36°50' E 123°54'1412.4
2015-Jun-04 21:23N 36°36' E 124°00'1112.5
2015-Jun-04 20:31N 36°26' E 124°04'1212.7
2015-Jun-04 19:33N 36°14' E 124°08'1412.7
2015-Jun-04 18:26N 36°01' E 124°14'1212.6
2015-Jun-04 17:27N 35°49' E 124°18'3712.4
2015-Jun-04 14:27N 35°13' E 124°32'6210.5
2015-Jun-04 08:33N 34°17' E 125°03'1210.8
2015-Jun-04 07:29N 34°10' E 125°14'19 9.8
2015-Jun-04 05:32N 33°59' E 125°33'1110.7
2015-Jun-04 04:32N 33°52' E 125°44'1111.7
2015-Jun-04 03:33N 33°46' E 125°55'1312.3
2015-Jun-04 02:32N 33°38' E 126°07'3511.6
2015-Jun-03 23:29N 33°41' E 126°49'  
Track history (hours):
 
Tides and Currents Weather Stations Pressure Air Temp Water Temp Dewpoint Dewpoint Depression Visibility Wind Speed Wind Dir Waves Ship Positions

Alam Padu

Last reported at 2015-Jun-12 12:30 UTC. Time now 2015-Jul-04 20:47 UTC.
Position N 30°38' E 124°59'.
Warning: this ship's position is 22 days out of date.

Length 229 m; draft 14 m.

Type: Cargo ship. MMSI: 533924000.

Date/timePositionNaut miles runAvg speedWind from/ knotsBaromVisibWave heightAir tempDewpointWater temp
2015-Jun-12 12:30N 30°38' E 124°59'2812.2
2015-Jun-12 10:13N 31°05' E 124°53'811.7
2015-Jun-12 09:31N 31°13' E 124°51'1111.6
2015-Jun-12 08:33N 31°25' E 124°48'7812.5
2015-Jun-12 02:22N 32°41' E 124°32'1113.5
2015-Jun-12 01:33N 32°52' E 124°30'  
2015-Jun-08 09:04N 39°03' E 119°08'1 0.1
2015-Jun-07 10:06N 39°02' E 119°07'0 0.1
2015-Jun-07 09:06N 39°02' E 119°07'0 0.0
2015-Jun-07 08:30N 39°02' E 119°07'0 0.0
2015-Jun-07 07:24N 39°02' E 119°07'0 0.0
2015-Jun-07 06:30N 39°02' E 119°07'153 3.4
2015-Jun-05 09:33N 38°12' E 122°13'3611.3
2015-Jun-05 06:22N 38°00' E 122°56'8410.8
2015-Jun-04 22:32N 36°50' E 123°54'1412.4
2015-Jun-04 21:23N 36°36' E 124°00'1112.5
2015-Jun-04 20:31N 36°26' E 124°04'1212.7
2015-Jun-04 19:33N 36°14' E 124°08'1412.7
2015-Jun-04 18:26N 36°01' E 124°14'1212.6
2015-Jun-04 17:27N 35°49' E 124°18'3712.4
2015-Jun-04 14:27N 35°13' E 124°32'6210.5
2015-Jun-04 08:33N 34°17' E 125°03'1210.8
2015-Jun-04 07:29N 34°10' E 125°14'19 9.8
2015-Jun-04 05:32N 33°59' E 125°33'1110.7
2015-Jun-04 04:32N 33°52' E 125°44'1111.7
2015-Jun-04 03:33N 33°46' E 125°55'1312.3
2015-Jun-04 02:32N 33°38' E 126°07'3511.6
2015-Jun-03 23:29N 33°41' E 126°49'  

Dump ship's entire track history